Time;durP1;ratioP1;P1;durP2;ratioP2;P2;SDS_P1;SDS_P2;PMS_P1;PMS_P2;Temp;Humidity;BMP_temperature;BMP_pressure;BME280_temperature;BME280_humidity;BME280_pressure;Samples;Min_cycle;Max_cycle;Signal;HPM_P1;HPM_P2
2021/03/22 00:02:02;;;;;;;63.22;22.70;;;;;;;0.21;67.38;99658.63;4952796;29;20138;-73
2021/03/22 00:04:28;;;;;;;66.10;23.48;;;;;;;0.20;67.26;99661.19;4942336;29;20070;-73
2021/03/22 00:06:54;;;;;;;48.13;18.25;;;;;;;0.19;67.28;99664.63;4934041;29;20149;-75
2021/03/22 00:09:21;;;;;;;44.30;20.60;;;;;;;0.18;67.47;99671.50;4934019;29;20150;-73
2021/03/22 00:11:47;;;;;;;46.80;18.17;;;;;;;0.15;67.26;99666.38;4940421;29;20487;-73
2021/03/22 00:14:13;;;;;;;59.97;20.73;;;;;;;0.14;67.53;99677.56;4934698;29;20059;-73
2021/03/22 00:16:40;;;;;;;53.88;20.10;;;;;;;0.13;67.61;99675.84;4948894;29;20502;-73
2021/03/22 00:19:06;;;;;;;51.78;18.65;;;;;;;0.11;67.45;99674.13;4948930;29;20134;-73
2021/03/22 00:21:33;;;;;;;53.50;20.00;;;;;;;0.10;67.48;99681.03;4937423;29;20059;-73
2021/03/22 00:23:59;;;;;;;44.70;18.63;;;;;;;0.10;67.47;99675.88;4933794;29;20131;-73
2021/03/22 00:26:28;;;;;;;47.55;17.08;;;;;;;0.09;67.60;99673.28;4935561;29;20055;-74
2021/03/22 00:28:55;;;;;;;53.05;20.58;;;;;;;0.06;67.38;99671.59;4938157;29;20139;-74
2021/03/22 00:31:21;;;;;;;48.65;18.75;;;;;;;0.03;67.39;99676.78;4936830;29;20064;-73
2021/03/22 00:33:47;;;;;;;60.22;20.85;;;;;;;0.03;67.50;99674.19;4951013;28;20085;-74
2021/03/22 00:36:13;;;;;;;74.97;29.48;;;;;;;0.01;67.48;99673.34;4932976;29;20475;-74
2021/03/22 00:38:39;;;;;;;78.80;25.75;;;;;;;-0.02;67.59;99675.91;4936955;29;20144;-74
2021/03/22 00:41:06;;;;;;;67.72;23.50;;;;;;;-0.05;67.60;99673.34;4933967;29;20139;-74
2021/03/22 00:43:33;;;;;;;80.50;26.45;;;;;;;-0.07;67.50;99675.94;4939623;29;20079;-73
2021/03/22 00:46:01;;;;;;;63.70;23.17;;;;;;;-0.10;67.58;99680.25;4914929;29;20138;-73
2021/03/22 00:48:29;;;;;;;55.88;21.00;;;;;;;-0.11;67.60;99684.56;4951871;29;20436;-73
2021/03/22 00:50:55;;;;;;;48.38;18.35;;;;;;;-0.12;67.69;99684.56;4933614;29;20584;-75
2021/03/22 00:53:22;;;;;;;41.53;16.30;;;;;;;-0.13;67.57;99686.28;4936919;29;20063;-74
2021/03/22 00:55:49;;;;;;;53.33;21.48;;;;;;;-0.15;67.61;99679.44;4932879;29;20044;-74
2021/03/22 00:58:15;;;;;;;67.85;21.88;;;;;;;-0.17;68.06;99686.31;4936318;29;20051;-74
2021/03/22 01:00:45;;;;;;;55.63;24.02;;;;;;;-0.22;67.71;99688.88;4933897;29;20481;-74
2021/03/22 01:03:14;;;;;;;45.30;16.10;;;;;;;-0.24;67.75;99682.03;4936858;29;20056;-74
2021/03/22 01:05:41;;;;;;;44.55;17.15;;;;;;;-0.25;67.67;99688.03;4932547;29;20382;-74
2021/03/22 01:08:07;;;;;;;37.92;15.65;;;;;;;-0.25;67.64;99695.75;4936840;29;20048;-74
2021/03/22 01:10:37;;;;;;;39.95;15.70;;;;;;;-0.27;67.71;99690.63;4932408;29;20083;-74
2021/03/22 01:13:05;;;;;;;40.75;18.05;;;;;;;-0.27;67.50;99693.19;4936681;29;20087;-74
2021/03/22 01:15:31;;;;;;;50.17;19.65;;;;;;;-0.29;67.58;99694.91;4932918;29;20055;-73
2021/03/22 01:17:58;;;;;;;56.15;20.08;;;;;;;-0.30;67.55;99693.22;4948257;29;20090;-73
2021/03/22 01:20:30;;;;;;;50.72;21.13;;;;;;;-0.33;67.88;99688.06;4952567;29;20613;-74
2021/03/22 01:22:56;;;;;;;51.38;18.60;;;;;;;-0.32;67.44;99690.63;4952640;29;20155;-73
2021/03/22 01:25:23;;;;;;;54.85;20.60;;;;;;;-0.35;67.51;99690.66;4953257;29;20054;-74
2021/03/22 01:27:49;;;;;;;66.80;23.23;;;;;;;-0.37;67.58;99691.53;4952065;29;20142;-73
2021/03/22 01:30:18;;;;;;;58.83;22.70;;;;;;;-0.38;67.47;99700.13;4951966;29;20061;-73
2021/03/22 01:32:45;;;;;;;43.25;20.00;;;;;;;-0.38;67.85;99695.81;4952506;29;20174;-75
2021/03/22 01:35:13;;;;;;;56.70;21.17;;;;;;;-0.40;67.47;99700.13;4952258;29;20054;-74
2021/03/22 01:37:40;;;;;;;55.50;20.80;;;;;;;-0.39;67.41;99701.84;4951136;29;20464;-74
2021/03/22 01:40:17;;;;;;;58.20;21.42;;;;;;;-0.43;67.65;99700.09;4932499;29;20049;-73
2021/03/22 01:42:57;;;;;;;47.45;18.48;;;;;;;-0.44;67.42;99703.53;4933974;29;20381;-74
2021/03/22 01:45:24;;;;;;;60.30;20.13;;;;;;;-0.43;67.52;99704.41;4928689;29;20138;-74
2021/03/22 01:47:51;;;;;;;54.30;21.15;;;;;;;-0.44;67.41;99703.53;4946619;29;20381;-73
2021/03/22 01:50:20;;;;;;;51.90;20.55;;;;;;;-0.48;67.46;99707.00;4952312;29;20110;-73
2021/03/22 01:52:49;;;;;;;69.53;24.00;;;;;;;-0.49;67.55;99707.84;4952085;29;20055;-73
2021/03/22 01:55:16;;;;;;;78.47;29.77;;;;;;;-0.49;67.53;99707.84;4952107;29;20115;-73
2021/03/22 01:57:44;;;;;;;66.70;24.48;;;;;;;-0.49;67.45;99707.00;4951363;29;20051;-74
2021/03/22 02:00:16;;;;;;;70.90;25.88;;;;;;;-0.52;67.66;99707.88;4952229;29;20094;-74
2021/03/22 02:02:44;;;;;;;45.72;19.88;;;;;;;-0.50;67.33;99708.72;4952854;29;20085;-73
2021/03/22 02:05:16;;;;;;;51.65;22.13;;;;;;;-0.52;67.43;99713.00;4952543;29;20142;-74
2021/03/22 02:07:46;;;;;;;54.70;20.95;;;;;;;-0.55;67.44;99714.75;4949818;29;20053;-73
2021/03/22 02:10:14;;;;;;;50.07;20.63;;;;;;;-0.55;67.44;99713.03;4952394;29;20105;-73
2021/03/22 02:12:41;;;;;;;50.28;20.35;;;;;;;-0.56;67.35;99716.47;4951341;29;20122;-73
2021/03/22 02:15:08;;;;;;;42.35;17.67;;;;;;;-0.57;67.52;99713.91;4939623;29;20163;-74
2021/03/22 02:17:43;;;;;;;40.05;17.55;;;;;;;-0.59;67.44;99710.47;4943647;29;20062;-73
2021/03/22 02:20:56;;;;;;;51.15;18.95;;;;;;;-0.56;67.52;99720.75;4951697;28;20082;-73
2021/03/22 02:23:56;;;;;;;56.92;20.35;;;;;;;-0.62;67.43;99719.91;4932148;29;20098;-72
2021/03/22 02:26:49;;;;;;;51.38;22.77;;;;;;;-0.63;67.40;99719.88;4926276;29;20047;-73
2021/03/22 02:29:34;;;;;;;41.50;19.50;;;;;;;-0.66;67.44;99717.31;4952818;29;20055;-72
2021/03/22 02:32:13;;;;;;;36.10;16.73;;;;;;;-0.65;67.40;99712.16;4952620;29;20087;-73
2021/03/22 02:34:46;;;;;;;36.40;14.98;;;;;;;-0.67;67.33;99716.47;4952911;28;20423;-72
2021/03/22 02:37:40;;;;;;;31.70;12.38;;;;;;;-0.66;67.42;99722.47;4948618;29;20056;-73
2021/03/22 02:40:20;;;;;;;24.05;11.05;;;;;;;-0.68;67.19;99724.19;4933499;29;20059;-73
2021/03/22 02:42:48;;;;;;;26.38;11.23;;;;;;;-0.68;67.14;99730.19;4945494;29;20459;-72
2021/03/22 02:45:20;;;;;;;22.95;10.80;;;;;;;-0.72;67.20;99725.91;4933983;29;20052;-72
2021/03/22 02:47:46;;;;;;;25.10;11.30;;;;;;;-0.68;67.18;99737.06;4939919;29;20149;-73
2021/03/22 02:50:16;;;;;;;20.65;10.48;;;;;;;-0.73;67.20;99734.50;4952501;29;20495;-72
2021/03/22 02:52:59;;;;;;;25.02;10.90;;;;;;;-0.72;67.44;99732.78;4952177;29;20776;-72
2021/03/22 02:55:35;;;;;;;24.60;10.07;;;;;;;-0.72;67.33;99735.34;4959664;29;20145;-72
2021/03/22 02:58:06;;;;;;;21.98;11.30;;;;;;;-0.71;67.14;99744.78;4960787;29;20134;-73
2021/03/22 03:00:36;;;;;;;17.60;9.82;;;;;;;-0.73;66.94;99739.66;4952547;29;20055;-72
2021/03/22 03:03:06;;;;;;;18.90;9.73;;;;;;;-0.75;67.39;99741.38;4951953;29;20079;-73
2021/03/22 03:05:34;;;;;;;25.10;10.23;;;;;;;-0.75;67.22;99745.66;4943794;29;20075;-72
2021/03/22 03:08:03;;;;;;;22.55;10.82;;;;;;;-0.76;67.23;99751.66;4948251;29;20117;-74
2021/03/22 03:10:29;;;;;;;24.00;10.65;;;;;;;-0.76;67.29;99756.81;4952491;29;20500;-74
2021/03/22 03:12:55;;;;;;;32.20;13.05;;;;;;;-0.76;67.38;99751.66;4951145;29;20586;-74
2021/03/22 03:15:23;;;;;;;27.65;13.45;;;;;;;-0.75;67.27;99750.81;4931753;29;20114;-74
2021/03/22 03:17:51;;;;;;;26.05;14.60;;;;;;;-0.76;67.29;99760.25;4940731;29;20369;-74
2021/03/22 03:20:21;;;;;;;30.80;13.88;;;;;;;-0.76;67.28;99761.97;4952319;29;20553;-73
2021/03/22 03:22:48;;;;;;;28.95;12.50;;;;;;;-0.77;67.24;99757.69;4951823;29;20039;-72
2021/03/22 03:25:15;;;;;;;21.17;12.38;;;;;;;-0.75;67.35;99766.25;4952209;29;20075;-74
2021/03/22 03:27:42;;;;;;;23.65;12.13;;;;;;;-0.75;67.31;99767.13;4951023;29;20058;-74
2021/03/22 03:30:12;;;;;;;22.90;10.63;;;;;;;-0.78;67.21;99761.97;4952156;29;20491;-74
2021/03/22 03:32:38;;;;;;;24.43;11.73;;;;;;;-0.75;67.45;99766.25;4953212;28;20091;-73
2021/03/22 03:35:07;;;;;;;44.15;17.00;;;;;;;-0.78;67.24;99773.97;4955949;29;20682;-73
2021/03/22 03:37:33;;;;;;;32.22;15.40;;;;;;;-0.79;66.99;99777.41;4954492;29;20132;-74
2021/03/22 03:40:00;;;;;;;45.25;16.23;;;;;;;-0.82;67.01;99769.69;4942556;29;20089;-73
2021/03/22 03:42:26;;;;;;;50.70;20.75;;;;;;;-0.81;67.10;99776.56;4929470;29;20539;-74
2021/03/22 03:44:53;;;;;;;54.42;20.17;;;;;;;-0.84;67.00;99777.38;4936297;29;20071;-74
2021/03/22 03:47:19;;;;;;;52.80;19.48;;;;;;;-0.87;66.78;99776.53;4937859;29;20138;-74
2021/03/22 03:49:45;;;;;;;48.88;18.38;;;;;;;-0.88;66.83;99780.81;4929509;29;20067;-74
2021/03/22 03:52:11;;;;;;;41.85;17.05;;;;;;;-0.87;66.82;99781.69;4938029;29;20047;-74
2021/03/22 03:54:37;;;;;;;39.75;16.27;;;;;;;-0.88;66.72;99787.69;4935648;29;20064;-73
2021/03/22 03:57:05;;;;;;;36.53;17.85;;;;;;;-0.93;66.87;99785.13;4939459;29;20842;-75
2021/03/22 03:59:31;;;;;;;40.78;18.88;;;;;;;-0.93;66.90;99777.41;4936663;29;20138;-74
2021/03/22 04:01:57;;;;;;;45.88;18.38;;;;;;;-0.94;66.77;99786.84;4943003;29;20047;-74
2021/03/22 04:04:24;;;;;;;42.83;17.25;;;;;;;-0.95;66.72;99787.69;4955101;29;20152;-73
2021/03/22 04:06:50;;;;;;;40.22;16.50;;;;;;;-0.96;66.80;99785.97;4954278;29;20126;-74
2021/03/22 04:09:19;;;;;;;32.90;14.85;;;;;;;-0.97;66.83;99796.28;4953506;29;20051;-73
2021/03/22 04:11:46;;;;;;;28.08;14.55;;;;;;;-0.98;66.67;99789.41;4954981;29;20059;-74
2021/03/22 04:14:17;;;;;;;31.27;14.77;;;;;;;-1.02;66.79;99798.00;4954999;29;20087;-74
2021/03/22 04:16:43;;;;;;;22.83;11.97;;;;;;;-0.98;66.57;99799.69;4953976;29;20507;-73
2021/03/22 04:19:09;;;;;;;32.17;15.48;;;;;;;-1.00;66.39;99801.41;4954985;29;20150;-74
2021/03/22 04:21:35;;;;;;;31.40;15.38;;;;;;;-1.01;66.59;99799.69;4954883;29;20142;-75
2021/03/22 04:24:04;;;;;;;33.90;18.92;;;;;;;-1.02;66.66;99798.84;4954715;29;20141;-75
2021/03/22 04:26:30;;;;;;;37.78;18.42;;;;;;;-0.99;66.66;99796.28;4952059;29;20082;-75
2021/03/22 04:28:56;;;;;;;43.05;20.40;;;;;;;-0.98;66.51;99804.84;4953713;29;20063;-75
2021/03/22 04:31:25;;;;;;;42.92;21.42;;;;;;;-1.00;66.92;99802.28;4929080;29;20080;-75
2021/03/22 04:33:52;;;;;;;48.90;23.10;;;;;;;-0.98;66.72;99805.72;4942532;29;20138;-74
2021/03/22 04:36:21;;;;;;;49.33;24.73;;;;;;;-0.97;66.59;99804.00;4936179;29;20054;-74
2021/03/22 04:38:47;;;;;;;55.10;23.92;;;;;;;-0.94;66.67;99804.00;4953957;29;20118;-74
2021/03/22 04:41:13;;;;;;;46.50;25.98;;;;;;;-0.92;66.70;99800.56;4942148;29;20343;-74
2021/03/22 04:43:39;;;;;;;54.83;25.52;;;;;;;-0.85;66.57;99810.84;4953297;28;20126;-74
2021/03/22 04:46:07;;;;;;;52.13;24.52;;;;;;;-0.80;66.64;99814.31;4954101;29;20503;-75
2021/03/22 04:48:34;;;;;;;50.70;23.92;;;;;;;-0.71;66.42;99814.28;4953998;29;20047;-74
2021/03/22 04:51:00;;;;;;;54.17;25.55;;;;;;;-0.55;66.25;99818.59;4954681;29;20146;-74
2021/03/22 04:53:26;;;;;;;54.20;23.63;;;;;;;-0.34;66.13;99818.56;4953670;29;20150;-74
2021/03/22 04:55:53;;;;;;;55.78;25.30;;;;;;;-0.08;65.62;99817.66;4954010;29;20190;-77
2021/03/22 04:58:19;;;;;;;53.42;24.70;;;;;;;0.20;65.18;99815.84;4953255;29;20134;-73
2021/03/22 05:00:46;;;;;;;55.65;26.95;;;;;;;0.41;64.97;99814.91;4941156;29;20079;-75
2021/03/22 05:03:16;;;;;;;55.47;25.63;;;;;;;0.60;64.77;99813.97;4950474;29;20487;-74
2021/03/22 05:05:43;;;;;;;47.75;26.60;;;;;;;0.76;64.71;99815.59;4924300;29;20064;-72
2021/03/22 05:08:12;;;;;;;47.83;23.83;;;;;;;0.95;64.67;99811.19;4931094;29;20396;-76
2021/03/22 05:10:41;;;;;;;51.17;22.30;;;;;;;1.15;64.93;99816.22;4931864;29;20419;-77
2021/03/22 05:13:13;;;;;;;52.35;24.25;;;;;;;1.23;64.87;99811.84;4936213;29;20423;-77
2021/03/22 05:15:39;;;;;;;40.33;20.65;;;;;;;1.36;64.88;99818.66;4937478;29;20063;-73
2021/03/22 05:18:08;;;;;;;44.72;19.00;;;;;;;1.50;64.69;99821.97;4935556;29;20043;-73
2021/03/22 05:20:38;;;;;;;46.80;18.98;;;;;;;1.67;64.62;99831.31;4928011;29;20059;-72
2021/03/22 05:23:07;;;;;;;45.25;18.45;;;;;;;1.80;64.32;99830.31;4934657;29;20060;-72
2021/03/22 05:25:34;;;;;;;37.85;17.58;;;;;;;1.94;64.23;99833.63;4874049;28;20252;-72
2021/03/22 05:28:01;;;;;;;42.45;18.65;;;;;;;2.00;64.31;99828.38;4966575;28;20519;-72
2021/03/22 05:30:28;;;;;;;44.53;20.58;;;;;;;2.13;64.25;99835.16;4963452;28;20130;-73
2021/03/22 05:32:57;;;;;;;53.83;22.63;;;;;;;2.26;64.14;99841.03;4969135;28;20086;-73
2021/03/22 05:35:24;;;;;;;40.53;20.70;;;;;;;2.37;63.95;99838.34;4965551;28;20073;-72
2021/03/22 05:37:53;;;;;;;41.47;20.08;;;;;;;2.50;64.09;99834.75;4970780;28;20122;-71
2021/03/22 05:40:25;;;;;;;49.05;21.40;;;;;;;2.59;63.43;99837.19;4964715;28;20047;-75
2021/03/22 05:43:02;;;;;;;55.47;23.17;;;;;;;2.69;63.65;99838.78;4971149;28;20399;-75
2021/03/22 05:45:53;;;;;;;58.10;26.95;;;;;;;2.80;63.70;99837.81;4968503;28;20051;-76
2021/03/22 05:48:38;;;;;;;58.22;27.90;;;;;;;2.86;63.50;99835.13;4969439;28;21194;-75
2021/03/22 05:51:27;;;;;;;61.80;28.63;;;;;;;2.99;63.23;99839.25;4966653;28;20170;-75
2021/03/22 05:54:04;;;;;;;60.28;29.58;;;;;;;3.18;63.10;99840.72;4978431;28;20070;-82
2021/03/22 05:56:39;;;;;;;62.70;27.10;;;;;;;3.41;62.82;99842.09;4974371;28;20447;-82
2021/03/22 05:59:23;;;;;;;50.65;25.45;;;;;;;3.59;62.43;99846.97;4967155;28;20050;-80
2021/03/22 06:01:54;;;;;;;52.80;26.42;;;;;;;3.70;62.23;99850.25;4971366;28;20089;-79
2021/03/22 06:04:24;;;;;;;55.58;30.20;;;;;;;3.79;62.24;99847.50;4960842;28;20403;-82
2021/03/22 06:06:51;;;;;;;53.13;27.05;;;;;;;3.90;61.96;99850.75;4969663;28;20117;-80
2021/03/22 06:09:33;;;;;;;42.63;21.95;;;;;;;4.00;62.09;99858.38;4970705;28;20446;-83
2021/03/22 06:12:07;;;;;;;37.58;19.80;;;;;;;4.15;61.82;99863.28;4970878;28;20046;-87
2021/03/22 06:14:43;;;;;;;40.08;20.52;;;;;;;4.24;61.59;99863.13;4965289;28;20054;-85
2021/03/22 06:17:15;;;;;;;48.55;24.73;;;;;;;4.39;61.50;99861.97;4969942;28;20050;-85
2021/03/22 06:19:53;;;;;;;50.42;25.45;;;;;;;4.65;61.03;99864.06;4969445;28;20133;-83
2021/03/22 06:22:24;;;;;;;43.90;22.33;;;;;;;4.97;60.31;99861.63;4972149;28;20055;-84
2021/03/22 06:24:52;;;;;;;53.30;23.95;;;;;;;5.25;59.96;99861.03;4968312;28;20134;-84
2021/03/22 06:27:20;;;;;;;47.08;23.70;;;;;;;5.43;59.82;99863.19;4970865;28;20043;-83
2021/03/22 06:29:46;;;;;;;51.55;24.50;;;;;;;5.70;59.14;99865.13;4968618;28;20053;-82
2021/03/22 06:32:20;;;;;;;54.55;24.25;;;;;;;6.02;58.59;99866.94;4968724;28;20056;-82
2021/03/22 06:34:52;;;;;;;60.72;26.88;;;;;;;6.46;57.81;99871.88;4963259;28;20059;-82
2021/03/22 06:37:21;;;;;;;49.97;24.92;;;;;;;6.82;57.13;99870.81;4968678;28;20049;-81
2021/03/22 06:40:08;;;;;;;50.20;23.20;;;;;;;7.12;56.73;99869.06;4970815;28;20078;-81
2021/03/22 06:42:35;;;;;;;46.65;20.52;;;;;;;7.68;55.51;99874.25;4969556;28;20616;-84
2021/03/22 06:45:04;;;;;;;38.10;20.15;;;;;;;8.06;54.97;99870.38;4968555;28;20065;-83
2021/03/22 06:47:32;;;;;;;38.10;18.13;;;;;;;8.27;54.58;99874.84;4968262;28;20047;-81
2021/03/22 06:50:23;;;;;;;41.38;17.98;;;;;;;8.53;54.42;99886.16;4969982;28;20510;-82
2021/03/22 06:52:50;;;;;;;29.77;16.00;;;;;;;8.38;54.55;99884.13;4968433;28;20138;-81
2021/03/22 06:55:30;;;;;;;36.63;19.15;;;;;;;8.66;54.41;99892.66;4971586;28;20069;-84
2021/03/22 06:57:59;;;;;;;38.00;18.63;;;;;;;9.06;53.10;99897.28;4986687;28;20061;-84
2021/03/22 07:00:31;;;;;;;31.98;15.65;;;;;;;9.14;52.48;99891.75;4987506;28;20034;-86
2021/03/22 07:03:00;;;;;;;27.10;15.18;;;;;;;9.09;52.73;99891.09;4968771;28;20055;-82
2021/03/22 07:05:44;;;;;;;38.33;18.73;;;;;;;9.35;52.39;99888.31;4969037;28;20717;-81
2021/03/22 07:08:12;;;;;;;32.53;15.15;;;;;;;9.70;51.81;99899.16;4971855;28;20062;-81
2021/03/22 07:10:41;;;;;;;28.92;15.50;;;;;;;10.23;50.77;99904.84;4972178;28;20062;-83
2021/03/22 07:13:16;;;;;;;28.23;14.98;;;;;;;11.07;49.21;99903.75;4974866;28;20051;-82
2021/03/22 07:15:42;;;;;;;34.90;16.50;;;;;;;11.45;48.33;99903.72;4972761;28;20055;-81
2021/03/22 07:18:16;;;;;;;42.67;20.20;;;;;;;12.01;47.65;99905.41;4972861;28;20047;-82
2021/03/22 07:20:44;;;;;;;36.75;18.90;;;;;;;12.85;45.75;99909.81;4972344;28;20078;-83
2021/03/22 07:23:30;;;;;;;37.13;19.30;;;;;;;12.98;45.37;99905.63;4972557;28;20161;-81
2021/03/22 07:26:01;;;;;;;38.15;20.50;;;;;;;13.24;44.43;99913.91;4970683;28;20085;-80
2021/03/22 07:28:41;;;;;;;36.17;17.83;;;;;;;13.78;43.48;99914.41;4974752;28;20039;-79
2021/03/22 07:31:19;;;;;;;34.30;19.10;;;;;;;14.40;42.53;99912.56;4969922;28;20304;-80
2021/03/22 07:33:54;;;;;;;33.95;17.63;;;;;;;14.70;41.06;99909.91;4972265;28;20082;-83
2021/03/22 07:36:32;;;;;;;32.15;16.33;;;;;;;14.94;40.36;99919.78;4970958;28;20526;-82
2021/03/22 07:39:27;;;;;;;33.40;17.45;;;;;;;15.44;39.99;99922.88;4971998;28;20058;-83
2021/03/22 07:42:12;;;;;;;28.00;14.85;;;;;;;16.55;37.47;99935.84;4952447;28;20062;-81
2021/03/22 07:44:50;;;;;;;21.50;12.52;;;;;;;17.93;34.96;99939.31;4970548;28;20484;-81
2021/03/22 07:47:39;;;;;;;27.65;14.40;;;;;;;18.29;34.70;99932.19;4973123;28;20081;-81
2021/03/22 07:50:16;;;;;;;24.27;13.57;;;;;;;18.13;34.24;99927.22;4940977;28;20146;-78
2021/03/22 07:52:49;;;;;;;18.40;10.65;;;;;;;18.06;34.13;99930.41;4970772;28;20055;-78
2021/03/22 07:55:47;;;;;;;24.65;11.43;;;;;;;17.85;33.90;99932.84;4969663;28;20451;-79
2021/03/22 07:58:35;;;;;;;22.40;12.75;;;;;;;18.17;33.63;99933.13;4974063;28;20081;-75
2021/03/22 08:01:09;;;;;;;27.98;12.63;;;;;;;18.69;31.82;99934.50;4972705;28;20204;-75
2021/03/22 08:03:47;;;;;;;22.75;13.77;;;;;;;18.27;32.46;99932.31;4970882;28;20143;-75
2021/03/22 08:06:43;;;;;;;21.48;12.40;;;;;;;17.82;33.25;99936.56;4972055;28;20062;-75
2021/03/22 08:09:22;;;;;;;26.00;14.30;;;;;;;17.21;33.60;99940.09;4949323;28;20046;-74
2021/03/22 08:11:54;;;;;;;26.25;12.85;;;;;;;16.95;34.14;99937.50;4973488;28;20082;-75
2021/03/22 08:14:25;;;;;;;18.90;10.55;;;;;;;16.94;33.57;99933.16;4972869;28;20487;-76
2021/03/22 08:17:33;;;;;;;19.15;11.27;;;;;;;16.77;33.65;99939.59;4977201;28;20089;-76
2021/03/22 08:20:10;;;;;;;15.90;9.43;;;;;;;16.65;32.93;99940.41;4933791;28;20067;-75
2021/03/22 08:22:42;;;;;;;18.45;10.38;;;;;;;16.58;32.85;99933.00;4971216;28;20058;-76
2021/03/22 08:25:22;;;;;;;22.10;11.50;;;;;;;16.57;32.80;99942.72;4969942;28;20153;-76
2021/03/22 08:27:56;;;;;;;14.50;8.75;;;;;;;16.39;33.20;99939.53;4971216;28;20061;-74
2021/03/22 08:30:30;;;;;;;19.65;9.63;;;;;;;16.84;32.26;99944.47;4975014;28;20554;-75
2021/03/22 08:33:04;;;;;;;17.40;9.10;;;;;;;17.04;31.49;99943.94;4970880;28;20071;-76
2021/03/22 08:35:36;;;;;;;20.30;11.35;;;;;;;16.93;31.62;99949.16;4969551;28;20055;-75
2021/03/22 08:38:05;;;;;;;18.35;10.85;;;;;;;16.88;31.43;99948.63;4966785;28;20047;-75
2021/03/22 08:40:43;;;;;;;16.52;9.02;;;;;;;16.13;32.36;99948.34;4988317;28;20050;-75
2021/03/22 08:43:17;;;;;;;13.63;7.63;;;;;;;15.55;32.68;99947.66;4973749;28;20129;-76
2021/03/22 08:46:05;;;;;;;16.80;8.32;;;;;;;14.99;33.53;99948.53;4974667;28;20043;-76
2021/03/22 08:48:33;;;;;;;18.10;8.95;;;;;;;14.82;33.69;99956.66;4973811;28;20042;-75
2021/03/22 08:51:04;;;;;;;17.10;9.60;;;;;;;15.52;33.04;99966.34;4970944;28;20059;-75
2021/03/22 08:53:35;;;;;;;14.75;9.88;;;;;;;15.86;32.60;99961.59;4970133;28;20513;-75
2021/03/22 08:56:07;;;;;;;15.38;8.65;;;;;;;15.94;32.62;99964.56;4965557;28;20073;-77
2021/03/22 08:58:36;;;;;;;17.65;9.00;;;;;;;16.41;32.25;99960.59;4970507;28;20046;-74
2021/03/22 09:01:22;;;;;;;13.85;8.90;;;;;;;16.75;31.54;99967.97;4968032;28;20051;-75
2021/03/22 09:03:51;;;;;;;13.15;8.02;;;;;;;17.08;30.98;99971.91;4968635;28;20081;-74
2021/03/22 09:06:21;;;;;;;11.38;7.88;;;;;;;16.93;30.80;99975.63;4966193;28;20062;-74
2021/03/22 09:09:19;;;;;;;12.13;7.55;;;;;;;16.49;31.69;99971.53;4969057;28;20050;-75
2021/03/22 09:11:48;;;;;;;12.93;7.03;;;;;;;16.48;31.76;99971.63;4893835;29;20601;-75
2021/03/22 09:14:31;;;;;;;12.30;7.93;;;;;;;16.24;31.87;99976.72;4953789;28;20079;-76
2021/03/22 09:17:03;;;;;;;14.48;7.40;;;;;;;15.66;32.14;99973.44;4970735;28;20035;-76
2021/03/22 09:19:41;;;;;;;;;;;;;;;15.37;33.56;99979.66;4971245;28;20050;-74
2021/03/22 09:22:36;;;;;;;15.32;7.93;;;;;;;15.03;33.61;99978.25;4968686;28;19926;-76
2021/03/22 09:25:04;;;;;;;12.30;7.45;;;;;;;14.86;33.51;99980.13;4940610;28;20566;-77
2021/03/22 09:27:33;;;;;;;13.57;7.57;;;;;;;14.04;34.50;99980.50;4968793;28;20250;-75
2021/03/22 09:30:31;;;;;;;12.65;6.75;;;;;;;13.40;35.46;99989.34;4972064;28;20051;-76
2021/03/22 09:32:58;;;;;;;10.57;5.80;;;;;;;12.91;35.68;99991.06;4970725;28;20404;-75
2021/03/22 09:36:04;;;;;;;13.48;7.00;;;;;;;12.43;36.21;99984.75;4971387;28;20158;-74
2021/03/22 09:38:44;;;;;;;11.32;6.20;;;;;;;12.11;36.47;99985.50;4972235;28;20105;-75
2021/03/22 09:41:10;;;;;;;12.00;5.82;;;;;;;11.79;36.79;99984.41;4970459;28;20059;-75
2021/03/22 09:43:41;;;;;;;8.30;5.38;;;;;;;11.37;37.41;99989.84;4968545;28;20245;-76
2021/03/22 09:46:28;;;;;;;9.25;4.57;;;;;;;11.25;37.31;99981.63;4968848;28;20055;-75
2021/03/22 09:49:17;;;;;;;10.73;4.88;;;;;;;11.35;37.25;99970.69;4972912;28;20059;-77
2021/03/22 09:51:48;;;;;;;7.53;3.80;;;;;;;11.45;36.52;99971.97;4968533;28;20054;-81
2021/03/22 09:54:37;;;;;;;5.00;3.20;;;;;;;11.66;36.18;99971.00;4970674;28;20059;-75
2021/03/22 09:57:39;;;;;;;9.07;4.07;;;;;;;12.33;35.09;99969.53;4970520;28;20065;-74
2021/03/22 10:00:29;;;;;;;13.02;6.80;;;;;;;12.68;34.82;99968.56;4971487;28;20043;-76
2021/03/22 10:02:58;;;;;;;16.10;6.40;;;;;;;13.02;34.52;99972.94;4969569;28;20047;-79
2021/03/22 10:05:28;;;;;;;15.07;6.65;;;;;;;13.01;34.62;99973.88;4967105;28;20050;-76
2021/03/22 10:08:16;;;;;;;9.90;5.70;;;;;;;12.67;35.33;99966.00;4968705;28;20058;-76
2021/03/22 10:10:51;;;;;;;11.70;6.50;;;;;;;12.42;36.58;99954.13;4968421;28;20050;-76
2021/03/22 10:13:21;;;;;;;9.25;5.95;;;;;;;12.05;36.55;99962.97;4968631;28;20086;-76
2021/03/22 10:15:54;;;;;;;12.38;6.65;;;;;;;11.85;36.87;99966.56;4968782;28;20451;-75
2021/03/22 10:18:28;;;;;;;13.02;7.05;;;;;;;11.69;37.44;99970.84;4969737;28;20485;-74
2021/03/22 10:21:05;;;;;;;12.60;6.32;;;;;;;11.48;37.83;99969.22;4964836;28;20158;-75
2021/03/22 10:23:35;;;;;;;18.85;8.15;;;;;;;11.32;37.91;99969.06;4966439;28;20509;-75
2021/03/22 10:26:08;;;;;;;15.38;7.07;;;;;;;11.03;37.96;99959.88;4970404;28;20130;-75
2021/03/22 10:28:34;;;;;;;10.93;5.95;;;;;;;10.87;37.74;99967.59;4966072;28;20055;-76
2021/03/22 10:31:03;;;;;;;10.60;6.40;;;;;;;10.59;38.32;99965.28;4970759;28;20137;-78
2021/03/22 10:33:30;;;;;;;9.80;5.43;;;;;;;10.48;38.33;99967.53;4971203;28;20109;-82
2021/03/22 10:36:00;;;;;;;16.20;7.60;;;;;;;10.30;39.07;99968.31;4966718;28;20522;-81
2021/03/22 10:38:29;;;;;;;14.93;7.32;;;;;;;10.35;39.10;99974.19;4975218;28;20054;-78
2021/03/22 10:40:58;;;;;;;8.73;5.57;;;;;;;10.36;38.84;99973.28;4969757;28;20051;-76
2021/03/22 10:43:32;;;;;;;9.93;4.60;;;;;;;10.23;38.42;99964.25;4969453;28;20046;-74
2021/03/22 10:46:13;;;;;;;9.10;5.70;;;;;;;10.19;38.63;99966.09;4968633;28;20201;-74
2021/03/22 10:48:39;;;;;;;13.38;5.97;;;;;;;10.06;38.85;99964.91;4970118;28;20047;-74
2021/03/22 10:51:12;;;;;;;9.80;4.63;;;;;;;10.15;38.55;99959.28;4969272;28;20050;-74
2021/03/22 10:53:59;;;;;;;9.32;5.13;;;;;;;10.11;38.21;99954.22;4967764;28;20046;-73
2021/03/22 10:56:33;;;;;;;8.90;5.57;;;;;;;10.15;38.55;99958.41;4965998;28;20487;-74
2021/03/22 10:59:04;;;;;;;7.90;5.53;;;;;;;10.21;37.68;99948.59;4966338;28;20075;-75
2021/03/22 11:01:36;;;;;;;6.72;4.03;;;;;;;10.30;37.27;99947.34;4966605;28;20055;-74
2021/03/22 11:04:05;;;;;;;6.13;3.78;;;;;;;10.86;36.33;99949.31;4971595;28;20069;-74
2021/03/22 11:06:34;;;;;;;8.13;4.40;;;;;;;10.97;35.97;99942.66;4968347;28;20035;-74
2021/03/22 11:09:04;;;;;;;8.07;4.30;;;;;;;10.62;36.38;99946.84;4969791;28;20141;-73
2021/03/22 11:11:32;;;;;;;8.15;4.45;;;;;;;10.58;36.47;99947.88;4968417;28;20054;-77
2021/03/22 11:14:02;;;;;;;6.45;3.63;;;;;;;10.87;36.12;99951.84;4968128;28;20050;-78
2021/03/22 11:16:31;;;;;;;4.90;3.38;;;;;;;11.32;35.43;99945.44;4969415;28;20098;-80
2021/03/22 11:18:59;;;;;;;10.40;4.40;;;;;;;11.15;35.68;99946.22;4969486;28;20502;-80
2021/03/22 11:22:19;;;;;;;7.28;4.00;;;;;;;10.96;36.17;99948.81;4983956;28;20043;-78
2021/03/22 11:24:46;;;;;;;5.38;3.22;;;;;;;11.03;35.83;99948.53;4963340;28;20055;-78
2021/03/22 11:27:13;;;;;;;5.57;3.63;;;;;;;11.17;35.41;99941.75;4970838;28;20070;-79
2021/03/22 11:29:50;;;;;;;7.32;3.40;;;;;;;11.64;34.88;99941.31;4971465;28;20058;-76
2021/03/22 11:32:20;;;;;;;6.30;3.40;;;;;;;12.13;33.93;99939.81;4974726;28;20043;-76
2021/03/22 11:34:47;;;;;;;3.80;2.40;;;;;;;12.43;32.77;99941.81;4988617;28;20153;-77
2021/03/22 11:37:19;;;;;;;6.18;2.13;;;;;;;12.24;32.15;99935.78;4967381;28;20173;-80
2021/03/22 11:39:46;;;;;;;3.53;2.03;;;;;;;11.81;32.22;99938.75;4968403;28;20057;-80
2021/03/22 11:42:25;;;;;;;4.40;2.42;;;;;;;11.34;33.11;99942.75;4965764;28;20085;-79
2021/03/22 11:44:52;;;;;;;6.53;3.22;;;;;;;10.99;33.75;99943.44;4966180;28;20054;-79
2021/03/22 11:47:38;;;;;;;4.32;2.90;;;;;;;10.71;34.42;99942.09;4964824;28;20086;-80